Time;durP1;ratioP1;P1;durP2;ratioP2;P2;SDS_P1;SDS_P2;PMS_P1;PMS_P2;Temp;Humidity;BMP_temperature;BMP_pressure;BME280_temperature;BME280_humidity;BME280_pressure;Samples;Min_cycle;Max_cycle;Signal;HPM_P1;HPM_P2
2024/03/30 00:00:46;;;;;;;27.83;7.63;;;;;;;;;;4960504;28;20057;-92
2024/03/30 00:03:12;;;;;;;23.33;7.15;;;;;;;;;;4960411;28;20026;-91
2024/03/30 00:05:38;;;;;;;21.42;7.82;;;;;;;;;;4960595;28;20329;-92
2024/03/30 00:08:05;;;;;;;22.30;7.65;;;;;;;;;;4960250;28;20061;-91
2024/03/30 00:10:31;;;;;;;22.55;7.95;;;;;;;;;;4960385;28;20023;-94
2024/03/30 00:12:58;;;;;;;18.48;6.57;;;;;;;;;;4960339;28;20027;-93
2024/03/30 00:15:31;;;;;;;21.58;7.50;;;;;;;;;;4959843;28;20059;-91
2024/03/30 00:17:57;;;;;;;26.07;7.90;;;;;;;;;;4959869;28;20050;-93
2024/03/30 00:20:23;;;;;;;22.48;7.07;;;;;;;;;;4960055;28;20297;-91
2024/03/30 00:22:50;;;;;;;23.20;8.10;;;;;;;;;;4960098;28;20038;-93
2024/03/30 00:25:18;;;;;;;24.95;7.60;;;;;;;;;;4959979;28;20031;-92
2024/03/30 00:27:44;;;;;;;26.00;7.50;;;;;;;;;;4959729;28;20070;-92
2024/03/30 00:30:10;;;;;;;20.60;6.28;;;;;;;;;;4959438;28;20121;-93
2024/03/30 00:32:37;;;;;;;27.90;7.00;;;;;;;;;;4959646;28;20035;-91
2024/03/30 00:35:07;;;;;;;22.92;7.20;;;;;;;;;;4959823;28;20030;-94
2024/03/30 00:37:33;;;;;;;28.25;7.68;;;;;;;;;;4959724;28;20038;-92
2024/03/30 00:39:59;;;;;;;22.15;6.85;;;;;;;;;;4960194;28;20093;-93
2024/03/30 00:42:27;;;;;;;22.38;8.65;;;;;;;;;;4959543;28;20034;-93
2024/03/30 00:44:53;;;;;;;20.15;7.38;;;;;;;;;;4962646;28;20030;-92
2024/03/30 00:47:19;;;;;;;24.55;7.75;;;;;;;;;;4996561;28;20042;-93
2024/03/30 00:49:46;;;;;;;21.30;6.90;;;;;;;;;;4982136;28;20026;-92
2024/03/30 00:52:12;;;;;;;21.27;7.55;;;;;;;;;;4978748;28;20387;-93
2024/03/30 00:54:38;;;;;;;17.95;6.43;;;;;;;;;;4978706;28;20030;-93
2024/03/30 00:57:05;;;;;;;18.35;6.93;;;;;;;;;;4978770;28;20107;-91
2024/03/30 00:59:31;;;;;;;14.70;6.35;;;;;;;;;;4978827;28;20037;-93
2024/03/30 01:01:57;;;;;;;26.88;7.50;;;;;;;;;;4978801;28;20026;-92
2024/03/30 01:04:24;;;;;;;20.95;7.28;;;;;;;;;;4979360;28;20031;-92
2024/03/30 01:06:50;;;;;;;22.95;6.32;;;;;;;;;;4978406;28;20038;-92
2024/03/30 01:09:17;;;;;;;26.30;6.25;;;;;;;;;;4978266;28;20361;-92
2024/03/30 01:11:43;;;;;;;18.55;7.57;;;;;;;;;;4978276;28;20091;-93
2024/03/30 01:14:10;;;;;;;20.45;6.28;;;;;;;;;;4978169;28;20049;-91
2024/03/30 01:16:36;;;;;;;25.15;7.60;;;;;;;;;;4978277;28;20050;-93
2024/03/30 01:19:03;;;;;;;19.67;6.13;;;;;;;;;;4978421;28;20105;-92
2024/03/30 01:21:29;;;;;;;18.48;6.57;;;;;;;;;;4978269;28;20030;-91
2024/03/30 01:23:56;;;;;;;26.77;7.28;;;;;;;;;;4978324;28;20027;-92
2024/03/30 01:26:24;;;;;;;18.45;6.50;;;;;;;;;;4978177;28;20026;-92
2024/03/30 01:28:52;;;;;;;19.98;7.25;;;;;;;;;;4978221;28;20034;-93
2024/03/30 01:31:19;;;;;;;21.90;7.60;;;;;;;;;;4978141;28;20097;-94
2024/03/30 01:33:45;;;;;;;19.40;6.38;;;;;;;;;;4977733;28;20038;-92
2024/03/30 01:36:11;;;;;;;14.02;5.47;;;;;;;;;;4977826;28;20079;-93
2024/03/30 01:38:37;;;;;;;14.27;5.88;;;;;;;;;;4977706;28;20042;-92
2024/03/30 01:41:04;;;;;;;21.30;6.45;;;;;;;;;;4977940;28;20121;-93
2024/03/30 01:43:30;;;;;;;20.88;6.13;;;;;;;;;;4977240;28;20025;-94
2024/03/30 01:45:56;;;;;;;26.83;6.43;;;;;;;;;;4977915;28;20037;-92
2024/03/30 01:48:23;;;;;;;20.55;6.38;;;;;;;;;;4977770;28;20133;-93
2024/03/30 01:50:50;;;;;;;26.90;6.00;;;;;;;;;;4977762;28;20023;-93
2024/03/30 01:53:18;;;;;;;22.70;5.80;;;;;;;;;;4977550;28;20030;-93
2024/03/30 01:55:45;;;;;;;17.13;5.22;;;;;;;;;;4977649;28;20488;-93
2024/03/30 01:58:14;;;;;;;27.85;6.80;;;;;;;;;;4977537;28;20061;-93
2024/03/30 02:00:40;;;;;;;18.27;6.00;;;;;;;;;;4977610;28;20033;-92
2024/03/30 02:03:06;;;;;;;23.27;6.60;;;;;;;;;;4977460;28;20509;-93
2024/03/30 02:05:33;;;;;;;25.00;5.70;;;;;;;;;;4977572;28;20026;-93
2024/03/30 02:08:02;;;;;;;25.95;6.72;;;;;;;;;;4977895;28;20030;-93
2024/03/30 02:10:29;;;;;;;13.73;6.53;;;;;;;;;;4977824;28;20092;-93
2024/03/30 02:12:55;;;;;;;18.13;6.10;;;;;;;;;;4977642;28;20058;-93
2024/03/30 02:15:21;;;;;;;24.85;6.03;;;;;;;;;;4977492;28;20105;-92
2024/03/30 02:17:47;;;;;;;25.75;6.30;;;;;;;;;;4977021;28;20108;-93
2024/03/30 02:20:14;;;;;;;23.90;6.00;;;;;;;;;;4977330;28;20026;-92
2024/03/30 02:22:40;;;;;;;23.50;5.80;;;;;;;;;;4977068;28;20072;-94
2024/03/30 02:25:06;;;;;;;28.92;5.75;;;;;;;;;;4977297;28;20587;-93
2024/03/30 02:27:32;;;;;;;27.42;7.53;;;;;;;;;;4995534;28;20026;-91
2024/03/30 02:30:02;;;;;;;24.13;6.07;;;;;;;;;;4984647;28;20026;-93
2024/03/30 02:32:29;;;;;;;25.85;6.18;;;;;;;;;;4980088;28;20027;-91
2024/03/30 02:34:55;;;;;;;24.58;6.97;;;;;;;;;;4978663;28;20092;-94
2024/03/30 02:37:21;;;;;;;26.00;6.63;;;;;;;;;;4999751;28;20018;-93
2024/03/30 02:39:48;;;;;;;23.75;6.63;;;;;;;;;;4995147;28;20039;-92
2024/03/30 02:42:14;;;;;;;25.63;6.60;;;;;;;;;;4983179;28;20507;-93
2024/03/30 02:44:40;;;;;;;22.42;6.97;;;;;;;;;;4978123;28;20054;-93
2024/03/30 02:47:06;;;;;;;22.13;6.32;;;;;;;;;;4977343;28;20030;-91
2024/03/30 02:49:32;;;;;;;22.42;6.50;;;;;;;;;;4977071;28;20031;-93
2024/03/30 02:51:58;;;;;;;25.88;6.53;;;;;;;;;;4977170;28;20030;-94
2024/03/30 02:54:24;;;;;;;27.08;7.97;;;;;;;;;;4978749;28;20035;-93
2024/03/30 02:56:50;;;;;;;25.58;6.82;;;;;;;;;;4981004;28;20494;-93
2024/03/30 02:59:17;;;;;;;23.33;6.78;;;;;;;;;;4980976;28;20030;-92
2024/03/30 03:01:45;;;;;;;25.75;8.10;;;;;;;;;;4980712;28;20033;-92
2024/03/30 03:04:11;;;;;;;22.75;6.90;;;;;;;;;;4981037;28;20019;-93
2024/03/30 03:06:38;;;;;;;29.83;7.07;;;;;;;;;;4980641;28;20034;-92
2024/03/30 03:09:05;;;;;;;28.40;7.50;;;;;;;;;;4980582;28;20399;-93
2024/03/30 03:11:31;;;;;;;30.35;6.60;;;;;;;;;;4980426;28;20077;-93
2024/03/30 03:13:57;;;;;;;29.90;5.60;;;;;;;;;;4980686;28;20030;-92
2024/03/30 03:16:23;;;;;;;28.30;8.50;;;;;;;;;;4980660;28;20490;-93
2024/03/30 03:18:49;;;;;;;23.92;5.65;;;;;;;;;;4980454;28;20049;-93
2024/03/30 03:21:17;;;;;;;22.35;5.28;;;;;;;;;;4964481;28;20081;-93
2024/03/30 03:23:43;;;;;;;22.90;6.03;;;;;;;;;;4980559;28;20030;-92
2024/03/30 03:26:10;;;;;;;26.17;7.50;;;;;;;;;;4980477;28;20032;-91
2024/03/30 03:28:36;;;;;;;34.88;6.60;;;;;;;;;;4980107;28;20046;-93
2024/03/30 03:31:02;;;;;;;25.13;7.13;;;;;;;;;;4980171;28;20033;-93
2024/03/30 03:33:28;;;;;;;25.83;6.45;;;;;;;;;;4980630;28;20566;-91
2024/03/30 03:35:55;;;;;;;27.85;7.55;;;;;;;;;;4980232;28;20019;-94
2024/03/30 03:38:22;;;;;;;26.58;5.80;;;;;;;;;;4980126;28;20029;-92
2024/03/30 03:40:48;;;;;;;20.58;5.20;;;;;;;;;;4980512;28;20113;-92
2024/03/30 03:43:14;;;;;;;25.15;5.90;;;;;;;;;;4980303;28;20502;-93
2024/03/30 03:45:47;;;;;;;21.00;6.00;;;;;;;;;;4980199;28;20045;-92
2024/03/30 03:48:13;;;;;;;27.70;5.68;;;;;;;;;;4979844;28;20050;-93
2024/03/30 03:50:42;;;;;;;29.58;5.75;;;;;;;;;;4980225;28;20022;-92
2024/03/30 03:53:08;;;;;;;23.75;6.65;;;;;;;;;;4980159;28;20034;-93
2024/03/30 03:55:36;;;;;;;35.63;6.63;;;;;;;;;;4980001;28;20471;-94
2024/03/30 03:58:02;;;;;;;20.98;6.72;;;;;;;;;;4979695;28;20039;-92
2024/03/30 04:00:28;;;;;;;28.05;6.25;;;;;;;;;;4979796;28;20027;-93
2024/03/30 04:02:55;;;;;;;24.45;5.65;;;;;;;;;;4980237;28;20384;-92
2024/03/30 04:05:21;;;;;;;34.40;7.20;;;;;;;;;;4978880;28;20023;-93
2024/03/30 04:07:48;;;;;;;34.70;8.13;;;;;;;;;;4981290;28;20502;-94
2024/03/30 04:10:15;;;;;;;24.98;7.20;;;;;;;;;;5001369;28;20027;-92
2024/03/30 04:12:41;;;;;;;22.70;6.25;;;;;;;;;;4982853;28;20464;-93
2024/03/30 04:15:08;;;;;;;30.35;7.60;;;;;;;;;;4979997;28;20496;-92
2024/03/30 04:17:34;;;;;;;27.80;8.48;;;;;;;;;;4979159;28;20062;-93
2024/03/30 04:20:01;;;;;;;23.88;6.13;;;;;;;;;;4979285;28;20031;-93
2024/03/30 04:22:27;;;;;;;26.38;9.55;;;;;;;;;;4979314;28;20041;-92
2024/03/30 04:24:54;;;;;;;33.67;7.68;;;;;;;;;;4979229;28;20072;-93
2024/03/30 04:27:20;;;;;;;26.13;8.07;;;;;;;;;;4979220;28;20041;-92
2024/03/30 04:29:47;;;;;;;40.42;11.20;;;;;;;;;;4979288;28;20033;-94
2024/03/30 04:32:13;;;;;;;32.03;8.82;;;;;;;;;;4979330;28;20121;-94
2024/03/30 04:34:40;;;;;;;27.40;11.93;;;;;;;;;;4979213;28;20446;-92
2024/03/30 04:37:06;;;;;;;37.88;7.20;;;;;;;;;;4979196;28;20058;-93
2024/03/30 04:39:33;;;;;;;24.73;6.15;;;;;;;;;;4979330;28;20022;-93
2024/03/30 04:41:59;;;;;;;29.98;8.85;;;;;;;;;;4979257;28;20030;-92
2024/03/30 04:44:26;;;;;;;21.77;8.25;;;;;;;;;;4978900;28;20100;-93
2024/03/30 04:46:52;;;;;;;37.47;10.48;;;;;;;;;;4978763;28;20560;-93
2024/03/30 04:49:18;;;;;;;26.63;6.40;;;;;;;;;;4978736;28;20041;-93
2024/03/30 04:51:44;;;;;;;22.05;10.27;;;;;;;;;;4978852;28;20026;-93
2024/03/30 04:54:10;;;;;;;22.83;7.75;;;;;;;;;;4979390;28;20072;-92
2024/03/30 04:56:37;;;;;;;20.45;6.97;;;;;;;;;;4979006;28;20030;-93
2024/03/30 04:59:03;;;;;;;30.17;11.98;;;;;;;;;;4978697;28;20117;-93
2024/03/30 05:01:29;;;;;;;33.88;10.32;;;;;;;;;;4978709;28;20026;-93
2024/03/30 05:03:55;;;;;;;31.70;11.50;;;;;;;;;;4978788;28;20041;-93
2024/03/30 05:06:21;;;;;;;32.78;10.30;;;;;;;;;;4978666;28;20033;-92
2024/03/30 05:08:47;;;;;;;29.98;8.85;;;;;;;;;;4978356;28;20476;-93
2024/03/30 05:11:13;;;;;;;32.33;7.55;;;;;;;;;;4978382;28;20121;-94
2024/03/30 05:13:40;;;;;;;21.42;6.15;;;;;;;;;;4978313;28;20088;-93
2024/03/30 05:16:06;;;;;;;25.98;7.45;;;;;;;;;;4978247;28;20034;-93
2024/03/30 05:18:33;;;;;;;28.65;8.70;;;;;;;;;;4977945;28;20077;-91
2024/03/30 05:21:01;;;;;;;32.70;8.98;;;;;;;;;;4978601;28;20165;-93
2024/03/30 05:23:28;;;;;;;28.10;8.27;;;;;;;;;;4978155;28;20030;-93
2024/03/30 05:25:55;;;;;;;27.40;7.55;;;;;;;;;;4978060;28;20045;-93
2024/03/30 05:28:22;;;;;;;27.10;7.93;;;;;;;;;;4978138;28;20038;-94
2024/03/30 05:30:49;;;;;;;29.88;8.65;;;;;;;;;;4977851;28;20038;-92
2024/03/30 05:33:16;;;;;;;21.75;7.53;;;;;;;;;;4977848;28;20038;-93
2024/03/30 05:35:42;;;;;;;32.08;9.02;;;;;;;;;;4993508;28;20042;-94
2024/03/30 05:38:08;;;;;;;29.27;11.07;;;;;;;;;;5002296;28;20046;-93
2024/03/30 05:40:35;;;;;;;30.67;15.77;;;;;;;;;;4991449;28;20022;-94
2024/03/30 05:43:05;;;;;;;35.65;19.98;;;;;;;;;;4985453;28;20049;-94
2024/03/30 05:45:31;;;;;;;30.60;14.43;;;;;;;;;;4978045;28;20031;-93
2024/03/30 05:47:57;;;;;;;30.17;14.70;;;;;;;;;;4977929;28;20042;-93
2024/03/30 05:50:24;;;;;;;33.17;18.88;;;;;;;;;;4985072;28;20029;-91
2024/03/30 05:52:50;;;;;;;41.50;20.15;;;;;;;;;;4994830;28;20077;-93
2024/03/30 05:55:17;;;;;;;32.53;16.20;;;;;;;;;;4979681;28;20037;-92
2024/03/30 05:57:44;;;;;;;41.28;22.25;;;;;;;;;;4978010;28;20027;-93
2024/03/30 06:00:11;;;;;;;55.20;49.35;;;;;;;;;;4977631;28;20076;-93
2024/03/30 06:02:38;;;;;;;34.15;19.02;;;;;;;;;;4977843;28;20030;-93
2024/03/30 06:05:04;;;;;;;38.42;21.02;;;;;;;;;;4977946;28;20398;-94
2024/03/30 06:07:31;;;;;;;32.47;17.73;;;;;;;;;;4962262;28;20494;-91
2024/03/30 06:09:57;;;;;;;38.60;18.80;;;;;;;;;;4978265;28;20034;-94
2024/03/30 06:12:24;;;;;;;29.85;20.10;;;;;;;;;;4978509;28;20023;-92
2024/03/30 06:14:50;;;;;;;27.42;14.95;;;;;;;;;;4978484;28;20044;-93
2024/03/30 06:17:16;;;;;;;32.03;12.43;;;;;;;;;;4978111;28;20044;-94
2024/03/30 06:19:42;;;;;;;33.53;15.98;;;;;;;;;;4978405;28;20380;-93
2024/03/30 06:22:08;;;;;;;30.90;20.55;;;;;;;;;;4978613;28;20030;-93
2024/03/30 06:24:56;;;;;;;45.88;23.95;;;;;;;;;;4994461;28;20031;-93
2024/03/30 06:27:47;;;;;;;30.15;16.65;;;;;;;;;;4998483;28;20117;-91
2024/03/30 06:30:14;;;;;;;28.02;13.05;;;;;;;;;;4987215;28;20064;-90
2024/03/30 06:32:42;;;;;;;48.67;23.75;;;;;;;;;;4999325;28;20026;-93
2024/03/30 06:35:08;;;;;;;47.30;31.95;;;;;;;;;;4990190;28;20360;-95
2024/03/30 06:37:34;;;;;;;53.97;41.42;;;;;;;;;;4982125;28;20031;-93
2024/03/30 06:45:30;;;;;;;63.67;56.92;;;;;;;;;;4985774;28;20045;-93
2024/03/30 06:47:56;;;;;;;63.75;57.53;;;;;;;;;;4981389;28;20121;-93
2024/03/30 06:50:24;;;;;;;52.25;43.88;;;;;;;;;;4981756;28;20113;-93
2024/03/30 06:52:51;;;;;;;44.60;34.45;;;;;;;;;;4999191;28;20031;-94
2024/03/30 06:55:17;;;;;;;37.58;33.65;;;;;;;;;;4982376;28;20493;-94
2024/03/30 06:57:44;;;;;;;46.20;25.73;;;;;;;;;;4982250;28;20089;-93
2024/03/30 07:00:10;;;;;;;35.08;29.65;;;;;;;;;;4982102;28;20030;-94
2024/03/30 07:02:37;;;;;;;36.90;25.45;;;;;;;;;;4982462;28;20058;-92
2024/03/30 07:05:03;;;;;;;45.00;26.27;;;;;;;;;;4982236;28;20033;-94
2024/03/30 07:07:29;;;;;;;30.73;19.38;;;;;;;;;;4965812;28;20558;-93
2024/03/30 07:09:55;;;;;;;45.13;29.20;;;;;;;;;;4981688;28;20026;-94
2024/03/30 07:12:22;;;;;;;36.05;27.65;;;;;;;;;;4981930;28;20023;-94
2024/03/30 07:14:48;;;;;;;40.58;24.50;;;;;;;;;;4981985;28;20034;-92
2024/03/30 07:17:14;;;;;;;31.05;22.70;;;;;;;;;;4983210;28;20054;-94
2024/03/30 07:19:41;;;;;;;34.63;21.70;;;;;;;;;;4972827;28;20034;-93
2024/03/30 07:22:07;;;;;;;41.15;28.65;;;;;;;;;;4983847;28;20459;-91
2024/03/30 07:24:33;;;;;;;37.88;22.63;;;;;;;;;;4981615;28;20033;-93
2024/03/30 07:26:59;;;;;;;35.72;23.67;;;;;;;;;;4981594;28;20066;-92
2024/03/30 07:29:26;;;;;;;40.40;27.67;;;;;;;;;;4983463;28;20022;-93
2024/03/30 07:31:55;;;;;;;37.35;26.17;;;;;;;;;;5002238;28;20027;-94
2024/03/30 07:34:23;;;;;;;41.38;30.95;;;;;;;;;;5001788;28;20026;-94
2024/03/30 07:36:49;;;;;;;38.55;24.73;;;;;;;;;;4981864;28;20084;-93
2024/03/30 07:39:17;;;;;;;35.90;27.92;;;;;;;;;;4981445;28;20040;-92
2024/03/30 07:41:43;;;;;;;44.45;26.02;;;;;;;;;;4980585;28;20034;-93
2024/03/30 07:44:16;;;;;;;47.75;33.28;;;;;;;;;;4981455;28;20073;-91
2024/03/30 07:46:44;;;;;;;43.05;31.10;;;;;;;;;;4981584;28;20089;-93
2024/03/30 07:49:10;;;;;;;44.03;29.65;;;;;;;;;;4980784;28;20042;-92
2024/03/30 07:51:36;;;;;;;55.63;38.75;;;;;;;;;;4980486;28;20373;-93
2024/03/30 07:54:02;;;;;;;52.97;37.60;;;;;;;;;;4981493;28;20030;-93
2024/03/30 07:56:29;;;;;;;46.28;41.15;;;;;;;;;;4980475;28;20034;-92
2024/03/30 07:58:55;;;;;;;53.72;39.65;;;;;;;;;;4981288;28;20054;-90
2024/03/30 08:01:24;;;;;;;52.85;37.63;;;;;;;;;;4981468;28;20053;-92
2024/03/30 08:03:55;;;;;;;57.40;39.72;;;;;;;;;;4987353;28;20037;-94
2024/03/30 08:06:39;;;;;;;57.17;34.17;;;;;;;;;;5000032;28;20035;-92
2024/03/30 08:09:07;;;;;;;50.28;36.38;;;;;;;;;;4983705;28;20030;-94
2024/03/30 08:11:34;;;;;;;53.33;34.67;;;;;;;;;;4981988;28;20030;-94
2024/03/30 08:14:00;;;;;;;48.22;32.78;;;;;;;;;;4980376;28;20057;-93
2024/03/30 08:16:29;;;;;;;50.53;31.52;;;;;;;;;;4981391;28;20105;-94
2024/03/30 08:18:57;;;;;;;63.55;36.58;;;;;;;;;;4980933;28;20059;-93
2024/03/30 08:21:23;;;;;;;50.72;28.85;;;;;;;;;;4982971;28;20029;-94
2024/03/30 08:23:50;;;;;;;48.60;29.05;;;;;;;;;;4985217;28;20026;-91
2024/03/30 08:26:17;;;;;;;51.42;25.67;;;;;;;;;;4981175;28;20053;-95
2024/03/30 08:28:46;;;;;;;52.00;32.47;;;;;;;;;;4980184;28;20177;-95
2024/03/30 08:31:13;;;;;;;52.08;27.88;;;;;;;;;;4987453;28;20022;-94
2024/03/30 08:33:39;;;;;;;54.30;32.25;;;;;;;;;;5002022;28;20030;-94
2024/03/30 08:36:05;;;;;;;55.20;32.88;;;;;;;;;;4981223;28;20106;-94
2024/03/30 08:38:31;;;;;;;42.85;28.70;;;;;;;;;;4994815;28;20026;-95
2024/03/30 08:40:57;;;;;;;50.83;30.92;;;;;;;;;;4983362;28;20034;-94
2024/03/30 08:43:25;;;;;;;53.60;35.15;;;;;;;;;;4980793;28;20026;-95
2024/03/30 08:45:55;;;;;;;60.45;30.88;;;;;;;;;;4980616;28;20038;-94
2024/03/30 08:48:23;;;;;;;46.25;29.08;;;;;;;;;;4981132;28;20052;-92
2024/03/30 08:50:50;;;;;;;44.63;25.80;;;;;;;;;;4981623;28;20039;-95
2024/03/30 08:53:16;;;;;;;50.47;33.38;;;;;;;;;;4982994;28;20411;-92
2024/03/30 08:55:42;;;;;;;52.50;38.33;;;;;;;;;;4980838;28;20050;-95
2024/03/30 08:58:08;;;;;;;50.10;23.88;;;;;;;;;;4979995;28;20034;-93
2024/03/30 09:00:35;;;;;;;64.15;42.70;;;;;;;;;;4980398;28;20074;-92
2024/03/30 09:03:01;;;;;;;49.97;36.00;;;;;;;;;;4980542;28;20546;-94
2024/03/30 09:05:29;;;;;;;49.53;33.05;;;;;;;;;;4964764;28;20026;-92
2024/03/30 09:07:55;;;;;;;51.08;28.98;;;;;;;;;;4982771;28;20050;-94
2024/03/30 09:10:22;;;;;;;50.75;26.60;;;;;;;;;;4999674;28;20036;-93
2024/03/30 09:12:49;;;;;;;49.05;22.70;;;;;;;;;;4982428;28;20062;-93
2024/03/30 09:15:15;;;;;;;52.83;28.52;;;;;;;;;;4980307;28;20026;-93
2024/03/30 09:17:42;;;;;;;46.92;25.75;;;;;;;;;;4996396;28;20046;-93
2024/03/30 09:20:10;;;;;;;44.83;29.95;;;;;;;;;;4978921;28;20026;-93
2024/03/30 09:22:36;;;;;;;46.40;30.58;;;;;;;;;;4978913;28;20426;-92
2024/03/30 09:25:07;;;;;;;51.08;31.58;;;;;;;;;;4981518;28;20026;-94
2024/03/30 09:27:34;;;;;;;43.65;26.35;;;;;;;;;;4979470;28;20073;-92
2024/03/30 09:30:00;;;;;;;57.78;28.83;;;;;;;;;;4980516;28;20034;-93
2024/03/30 09:32:26;;;;;;;54.70;34.13;;;;;;;;;;4979598;28;20510;-94
2024/03/30 09:34:52;;;;;;;53.05;31.15;;;;;;;;;;4979712;28;20495;-93
2024/03/30 09:37:18;;;;;;;39.03;26.40;;;;;;;;;;4980561;28;20030;-93
2024/03/30 09:39:45;;;;;;;45.33;32.88;;;;;;;;;;4979471;28;20026;-92
2024/03/30 09:42:22;;;;;;;39.28;24.00;;;;;;;;;;4979407;28;20030;-93
2024/03/30 09:44:48;;;;;;;56.63;26.77;;;;;;;;;;4979778;28;20026;-94
2024/03/30 09:47:15;;;;;;;46.47;30.65;;;;;;;;;;4978304;28;20205;-94
2024/03/30 09:49:43;;;;;;;46.80;29.83;;;;;;;;;;4979654;28;20089;-93
2024/03/30 09:52:10;;;;;;;49.22;33.13;;;;;;;;;;4978821;28;20034;-94
2024/03/30 09:54:37;;;;;;;49.17;32.75;;;;;;;;;;4963129;28;20129;-93
2024/03/30 09:57:03;;;;;;;45.13;34.30;;;;;;;;;;4978668;28;20030;-93
2024/03/30 09:59:29;;;;;;;65.15;45.45;;;;;;;;;;4978726;28;20535;-93
2024/03/30 10:01:56;;;;;;;50.10;33.05;;;;;;;;;;4979123;28;20491;-92
2024/03/30 10:04:22;;;;;;;63.78;39.97;;;;;;;;;;4977237;28;20393;-94
2024/03/30 10:06:58;;;;;;;54.67;40.30;;;;;;;;;;4979697;28;20044;-93
2024/03/30 10:09:26;;;;;;;55.65;34.17;;;;;;;;;;4979808;28;20483;-95
2024/03/30 10:11:58;;;;;;;44.25;36.65;;;;;;;;;;4963187;28;20235;-93
2024/03/30 10:14:30;;;;;;;59.45;36.08;;;;;;;;;;4981156;28;20026;-92
2024/03/30 10:16:56;;;;;;;53.95;29.48;;;;;;;;;;4979134;28;20027;-94
2024/03/30 10:19:23;;;;;;;45.95;29.85;;;;;;;;;;4978948;28;20053;-94
2024/03/30 10:21:50;;;;;;;44.60;23.15;;;;;;;;;;4979451;28;20022;-92
2024/03/30 10:24:19;;;;;;;45.97;31.25;;;;;;;;;;4982785;28;20054;-93
2024/03/30 10:26:46;;;;;;;52.75;39.60;;;;;;;;;;4978739;28;20037;-92
2024/03/30 10:29:40;;;;;;;45.03;26.80;;;;;;;;;;4985719;28;20030;-94
2024/03/30 10:32:07;;;;;;;49.78;33.05;;;;;;;;;;4996003;28;20034;-93
2024/03/30 10:34:33;;;;;;;57.78;33.13;;;;;;;;;;4979195;28;20026;-96
2024/03/30 10:37:00;;;;;;;47.13;31.50;;;;;;;;;;4979312;28;20034;-93
2024/03/30 10:39:29;;;;;;;48.47;33.10;;;;;;;;;;4979663;28;20027;-94
2024/03/30 10:41:55;;;;;;;42.67;24.77;;;;;;;;;;4980474;28;20472;-92
2024/03/30 10:44:30;;;;;;;55.45;27.60;;;;;;;;;;4982699;28;20030;-93
2024/03/30 10:46:57;;;;;;;54.28;28.67;;;;;;;;;;4987930;28;20041;-91
2024/03/30 10:49:24;;;;;;;45.90;29.88;;;;;;;;;;4993470;28;20038;-94
2024/03/30 10:51:53;;;;;;;48.17;27.60;;;;;;;;;;4981150;28;20430;-92
2024/03/30 10:54:19;;;;;;;56.22;37.50;;;;;;;;;;4979102;28;20539;-94
2024/03/30 10:56:47;;;;;;;38.72;25.95;;;;;;;;;;4978072;28;20084;-93
2024/03/30 10:59:13;;;;;;;54.42;38.58;;;;;;;;;;4978228;28;20042;-94
2024/03/30 11:01:40;;;;;;;53.08;34.85;;;;;;;;;;4978713;28;20119;-95
2024/03/30 11:04:07;;;;;;;50.75;26.73;;;;;;;;;;4979444;28;20138;-94
2024/03/30 11:06:33;;;;;;;47.70;31.20;;;;;;;;;;4982381;28;20022;-95
2024/03/30 11:09:00;;;;;;;44.13;24.98;;;;;;;;;;4982852;28;20046;-94
2024/03/30 11:11:26;;;;;;;54.15;31.00;;;;;;;;;;4979039;28;20023;-92
2024/03/30 11:13:52;;;;;;;42.53;21.85;;;;;;;;;;4978519;28;20101;-94
2024/03/30 11:16:19;;;;;;;64.55;40.15;;;;;;;;;;4981214;28;20025;-92
2024/03/30 11:18:54;;;;;;;45.60;22.55;;;;;;;;;;4982420;28;20058;-93
2024/03/30 11:21:28;;;;;;;56.35;37.72;;;;;;;;;;4981420;28;20030;-92
2024/03/30 11:23:58;;;;;;;46.25;29.80;;;;;;;;;;4981493;28;20034;-92
2024/03/30 11:26:25;;;;;;;52.90;29.58;;;;;;;;;;4989204;28;20010;-92
2024/03/30 11:29:17;;;;;;;46.53;28.55;;;;;;;;;;5004833;28;20131;-93
2024/03/30 11:31:47;;;;;;;50.10;26.02;;;;;;;;;;4998497;28;20051;-95
2024/03/30 11:34:16;;;;;;;49.20;29.92;;;;;;;;;;4988313;28;20077;-93
2024/03/30 11:36:49;;;;;;;41.13;31.00;;;;;;;;;;4983968;28;20038;-95
2024/03/30 11:39:21;;;;;;;51.47;33.28;;;;;;;;;;4984762;28;20026;-95
2024/03/30 11:41:51;;;;;;;53.40;34.90;;;;;;;;;;4982320;28;20042;-92
2024/03/30 11:44:22;;;;;;;45.95;36.92;;;;;;;;;;4985353;28;20022;-92
2024/03/30 11:46:49;;;;;;;49.83;31.98;;;;;;;;;;4980874;28;20030;-92
2024/03/30 11:49:18;;;;;;;41.78;30.08;;;;;;;;;;4980415;28;20057;-95
2024/03/30 11:51:44;;;;;;;46.92;33.85;;;;;;;;;;4980427;28;20089;-94
2024/03/30 11:54:20;;;;;;;45.67;32.88;;;;;;;;;;4980969;28;20033;-95
2024/03/30 11:56:55;;;;;;;44.53;30.08;;;;;;;;;;4980105;28;20038;-95
2024/03/30 11:59:21;;;;;;;51.22;29.95;;;;;;;;;;4979953;28;20033;-93
2024/03/30 12:01:47;;;;;;;50.42;37.25;;;;;;;;;;4979927;28;20022;-95
2024/03/30 12:04:14;;;;;;;48.28;23.52;;;;;;;;;;4979829;28;20072;-91
2024/03/30 12:06:41;;;;;;;50.08;27.75;;;;;;;;;;4980100;28;20080;-95
2024/03/30 12:09:08;;;;;;;49.65;29.58;;;;;;;;;;4979720;28;20034;-93
2024/03/30 12:11:34;;;;;;;51.70;36.60;;;;;;;;;;4979622;28;20060;-91
2024/03/30 12:14:00;;;;;;;46.00;28.23;;;;;;;;;;4979649;28;20030;-95
2024/03/30 12:16:27;;;;;;;54.88;35.60;;;;;;;;;;4979733;28;20054;-93
2024/03/30 12:18:53;;;;;;;54.17;33.28;;;;;;;;;;4979600;28;20050;-94
2024/03/30 12:21:19;;;;;;;62.53;32.33;;;;;;;;;;4979649;28;20033;-93
2024/03/30 12:23:45;;;;;;;45.17;29.63;;;;;;;;;;4980313;28;20069;-92
2024/03/30 12:26:12;;;;;;;44.78;24.23;;;;;;;;;;5000789;28;20058;-92
2024/03/30 12:28:38;;;;;;;47.92;24.75;;;;;;;;;;4985543;28;20043;-91
2024/03/30 12:31:04;;;;;;;48.30;27.42;;;;;;;;;;4979546;28;20023;-94
2024/03/30 12:33:30;;;;;;;40.13;22.63;;;;;;;;;;4979030;28;20034;-93
2024/03/30 12:35:57;;;;;;;39.80;23.88;;;;;;;;;;4979314;28;20026;-94
2024/03/30 12:38:23;;;;;;;53.40;33.13;;;;;;;;;;4980315;28;20058;-93
2024/03/30 12:40:51;;;;;;;40.17;25.15;;;;;;;;;;4979331;28;20057;-94
2024/03/30 12:43:17;;;;;;;46.25;20.73;;;;;;;;;;4979084;28;20045;-94
2024/03/30 12:45:44;;;;;;;67.97;34.50;;;;;;;;;;4979010;28;20472;-94
2024/03/30 12:48:13;;;;;;;58.10;28.02;;;;;;;;;;4978929;28;20062;-93
2024/03/30 12:50:39;;;;;;;54.90;20.48;;;;;;;;;;4979188;28;20026;-94
2024/03/30 12:53:05;;;;;;;60.78;23.13;;;;;;;;;;4979061;28;20054;-94
2024/03/30 12:55:31;;;;;;;52.38;27.20;;;;;;;;;;4979043;28;20034;-94
2024/03/30 12:57:58;;;;;;;60.78;23.42;;;;;;;;;;4978923;28;20027;-92
2024/03/30 13:00:24;;;;;;;67.40;23.70;;;;;;;;;;4979137;28;20543;-92
2024/03/30 13:02:53;;;;;;;58.30;21.38;;;;;;;;;;4978917;28;20476;-94
2024/03/30 13:05:20;;;;;;;60.08;25.38;;;;;;;;;;4978632;28;20084;-92
2024/03/30 13:07:48;;;;;;;75.95;30.50;;;;;;;;;;4978869;28;20037;-93
2024/03/30 13:10:15;;;;;;;72.30;29.10;;;;;;;;;;4978983;28;20125;-91
2024/03/30 13:12:42;;;;;;;56.92;24.52;;;;;;;;;;4978646;28;20025;-94
2024/03/30 13:15:09;;;;;;;80.15;29.77;;;;;;;;;;4978778;28;20034;-94
2024/03/30 13:17:36;;;;;;;76.50;29.67;;;;;;;;;;4978583;28;20049;-93
2024/03/30 13:20:05;;;;;;;64.40;25.15;;;;;;;;;;4978531;28;20034;-94
2024/03/30 13:22:32;;;;;;;70.32;22.48;;;;;;;;;;4978637;28;20022;-92
2024/03/30 13:24:58;;;;;;;68.00;23.25;;;;;;;;;;4978368;28;20030;-94
2024/03/30 13:27:27;;;;;;;62.63;26.05;;;;;;;;;;4978383;28;20030;-92
2024/03/30 13:29:53;;;;;;;60.90;28.88;;;;;;;;;;4978922;28;20494;-93
2024/03/30 13:32:19;;;;;;;60.15;23.35;;;;;;;;;;4962456;28;20039;-95
2024/03/30 13:34:46;;;;;;;64.63;33.53;;;;;;;;;;4978560;28;20080;-92
2024/03/30 13:37:13;;;;;;;66.05;31.95;;;;;;;;;;4978280;28;20490;-94
2024/03/30 13:39:41;;;;;;;66.63;26.05;;;;;;;;;;4978140;28;20056;-92
2024/03/30 13:42:07;;;;;;;80.90;34.67;;;;;;;;;;4978038;28;20169;-93
2024/03/30 13:44:33;;;;;;;76.35;33.08;;;;;;;;;;4978275;28;20034;-93
2024/03/30 13:46:59;;;;;;;80.05;27.73;;;;;;;;;;4978142;28;20490;-93
2024/03/30 13:49:26;;;;;;;96.05;32.88;;;;;;;;;;4962023;28;20057;-94
2024/03/30 13:51:52;;;;;;;78.90;32.85;;;;;;;;;;4978116;28;20401;-93
2024/03/30 13:54:18;;;;;;;97.55;29.15;;;;;;;;;;4977941;28;20041;-93
2024/03/30 13:56:45;;;;;;;84.80;26.25;;;;;;;;;;4977792;28;20032;-94
2024/03/30 13:59:12;;;;;;;77.55;26.73;;;;;;;;;;4978266;28;20038;-93
2024/03/30 14:01:38;;;;;;;83.45;29.42;;;;;;;;;;4987899;28;20082;-93
2024/03/30 14:04:04;;;;;;;74.93;25.55;;;;;;;;;;4996465;28;20030;-93
2024/03/30 14:06:30;;;;;;;88.97;27.17;;;;;;;;;;4982513;28;20053;-94
2024/03/30 14:08:56;;;;;;;87.13;32.20;;;;;;;;;;4977868;28;20116;-93
2024/03/30 14:11:23;;;;;;;104.18;33.00;;;;;;;;;;4977988;28;20029;-93
2024/03/30 14:13:51;;;;;;;76.20;32.25;;;;;;;;;;4977745;28;20092;-94
2024/03/30 14:16:18;;;;;;;83.38;24.25;;;;;;;;;;4978043;28;20117;-93
2024/03/30 14:18:44;;;;;;;87.75;31.80;;;;;;;;;;4987415;28;20054;-93
2024/03/30 14:21:10;;;;;;;72.45;26.15;;;;;;;;;;5001787;28;20049;-94
2024/03/30 14:23:38;;;;;;;80.95;27.33;;;;;;;;;;4993680;28;20046;-92
2024/03/30 14:26:04;;;;;;;76.32;32.45;;;;;;;;;;4972741;28;20173;-94